createdAt,value
2018-05-19T00:01:25.769Z,16.05
2018-05-19T00:03:56.887Z,15.48
2018-05-19T00:06:26.774Z,15.10
2018-05-19T00:08:57.098Z,16.05
2018-05-19T00:11:29.705Z,14.10
2018-05-19T00:14:02.063Z,17.70
2018-05-19T00:16:32.789Z,15.30
2018-05-19T00:19:03.083Z,15.30
2018-05-19T00:21:34.567Z,15.77
2018-05-19T00:24:04.763Z,15.68
2018-05-19T00:26:35.829Z,16.30
2018-05-19T00:29:06.854Z,15.15
2018-05-19T00:31:36.437Z,15.98
2018-05-19T00:34:06.762Z,16.27
2018-05-19T00:36:36.548Z,19.85
2018-05-19T00:39:07.323Z,17.83
2018-05-19T00:41:39.952Z,17.17
2018-05-19T00:44:10.576Z,16.00
2018-05-19T00:46:40.185Z,16.95
2018-05-19T00:49:10.426Z,17.12
2018-05-19T00:51:41.981Z,18.30
2018-05-19T00:54:12.742Z,18.35
2018-05-19T00:56:43.001Z,17.10
2018-05-19T00:59:12.771Z,15.90
2018-05-19T01:01:42.484Z,16.70
2018-05-19T01:04:12.083Z,16.70
2018-05-19T01:06:41.627Z,16.95
2018-05-19T01:09:11.204Z,16.75
2018-05-19T01:11:42.261Z,18.15
2018-05-19T01:14:13.064Z,17.05
2018-05-19T01:16:44.473Z,16.95
2018-05-19T01:19:13.879Z,16.20
2018-05-19T01:21:44.796Z,16.50
2018-05-19T01:24:14.708Z,15.40
2018-05-19T01:26:44.972Z,17.25
2018-05-19T01:29:15.056Z,15.98
2018-05-19T01:31:46.855Z,17.33
2018-05-19T01:34:17.161Z,15.23
2018-05-19T01:36:48.036Z,16.80
2018-05-19T01:39:17.599Z,15.77
2018-05-19T01:41:49.309Z,16.23
2018-05-19T01:44:20.196Z,16.35
2018-05-19T01:46:52.825Z,16.40
2018-05-19T01:49:24.940Z,16.80
2018-05-19T01:51:55.771Z,15.50
2018-05-19T01:54:26.606Z,13.90
2018-05-19T01:57:00.126Z,17.17
2018-05-19T01:59:31.899Z,15.73
2018-05-19T02:02:03.164Z,14.82
2018-05-19T02:04:33.525Z,16.12
2018-05-19T02:07:05.959Z,16.77
2018-05-19T02:09:35.874Z,15.18
2018-05-19T02:12:06.085Z,14.80
2018-05-19T02:14:35.840Z,15.95
2018-05-19T02:17:06.115Z,16.48
2018-05-19T02:19:35.660Z,16.02
2018-05-19T02:22:10.523Z,16.05
2018-05-19T02:24:43.061Z,16.67
2018-05-19T02:27:12.988Z,17.20
2018-05-19T02:29:45.205Z,16.90
2018-05-19T02:32:16.630Z,17.35
2018-05-19T02:34:53.364Z,16.40
2018-05-19T02:37:23.004Z,16.92
2018-05-19T02:39:53.435Z,16.67
2018-05-19T02:42:28.949Z,16.95
2018-05-19T02:45:02.184Z,16.15
2018-05-19T02:47:37.062Z,16.35
2018-05-19T02:50:11.198Z,16.60
2018-05-19T02:52:43.132Z,17.12
2018-05-19T02:55:14.618Z,17.17
2018-05-19T02:57:45.715Z,16.83
2018-05-19T03:00:17.880Z,17.08
2018-05-19T03:02:49.378Z,18.02
2018-05-19T03:05:21.898Z,17.12
2018-05-19T03:07:54.566Z,16.58
2018-05-19T03:10:24.112Z,17.95
2018-05-19T03:12:55.694Z,17.00
2018-05-19T03:15:27.212Z,18.33
2018-05-19T03:17:59.952Z,18.77
2018-05-19T03:20:32.070Z,19.37
2018-05-19T03:23:09.944Z,17.20
2018-05-19T03:25:40.559Z,17.48
2018-05-19T03:28:12.730Z,17.83
2018-05-19T03:30:43.939Z,17.83
2018-05-19T03:33:18.293Z,18.05
2018-05-19T03:35:50.814Z,17.73
2018-05-19T03:38:23.144Z,18.00
2018-05-19T03:40:59.103Z,19.45
2018-05-19T03:43:34.412Z,18.45
2018-05-19T03:46:07.876Z,19.15
2018-05-19T03:48:42.121Z,18.45
2018-05-19T03:51:14.057Z,20.08
2018-05-19T03:53:46.347Z,18.80
2018-05-19T03:56:20.478Z,18.20
2018-05-19T04:02:09.529Z,19.62
2018-05-19T04:07:28.214Z,18.35
2018-05-19T04:10:02.055Z,20.90
2018-05-19T04:12:40.251Z,20.95
2018-05-19T04:15:15.568Z,20.17
2018-05-19T04:17:58.282Z,18.75
2018-05-19T04:20:41.955Z,21.35
2018-05-19T04:23:32.619Z,19.37
2018-05-19T04:26:04.441Z,19.17
2018-05-19T04:28:42.169Z,21.02
2018-05-19T04:34:03.080Z,21.58
2018-05-19T04:36:45.292Z,18.35
2018-05-19T04:39:37.380Z,19.48
2018-05-19T04:42:13.877Z,21.55
2018-05-19T04:44:53.990Z,20.23
2018-05-19T04:47:28.798Z,18.87
2018-05-19T04:52:46.259Z,20.65
2018-05-19T04:55:23.642Z,19.27
2018-05-19T04:57:56.521Z,18.85
2018-05-19T05:00:28.862Z,19.55
2018-05-19T05:03:01.746Z,20.80
2018-05-19T05:05:45.832Z,19.48
2018-05-19T05:08:22.963Z,18.58
2018-05-19T05:10:54.171Z,20.17
2018-05-19T05:13:33.216Z,20.10
2018-05-19T05:16:03.456Z,19.52
2018-05-19T05:18:34.053Z,19.30
2018-05-19T05:21:05.083Z,19.92
2018-05-19T05:23:34.607Z,19.62
2018-05-19T05:26:04.441Z,21.87
2018-05-19T05:28:34.189Z,19.40
2018-05-19T05:31:04.659Z,19.58
2018-05-19T05:33:34.009Z,17.55
2018-05-19T05:36:04.519Z,20.27
2018-05-19T05:38:34.119Z,18.25
2018-05-19T05:43:43.275Z,18.48
2018-05-19T05:46:13.714Z,17.58
2018-05-19T05:48:43.161Z,18.67
2018-05-19T05:51:14.193Z,18.27
2018-05-19T05:53:45.604Z,18.75
2018-05-19T05:56:14.922Z,19.33
2018-05-19T05:58:44.229Z,17.70
2018-05-19T06:01:13.557Z,17.35
2018-05-19T06:03:42.889Z,18.40
2018-05-19T06:06:12.970Z,18.77
2018-05-19T06:08:44.182Z,17.58
2018-05-19T06:11:13.713Z,18.25
2018-05-19T06:13:48.079Z,17.55
2018-05-19T06:16:18.714Z,19.48
2018-05-19T06:18:49.776Z,19.83
2018-05-19T06:21:19.410Z,18.30
2018-05-19T06:23:48.734Z,18.90
2018-05-19T06:26:18.065Z,17.23
2018-05-19T06:28:48.113Z,18.17
2018-05-19T06:31:17.878Z,19.60
2018-05-19T06:33:47.465Z,19.33
2018-05-19T06:36:17.922Z,18.50
2018-05-19T06:38:47.789Z,19.25
2018-05-19T06:41:19.094Z,17.80
2018-05-19T06:43:49.314Z,17.98
2018-05-19T06:46:19.900Z,17.40
2018-05-19T06:48:56.922Z,19.35
2018-05-19T06:51:30.895Z,18.05
2018-05-19T06:54:00.698Z,17.70
2018-05-19T06:56:31.105Z,19.30
2018-05-19T06:59:01.642Z,18.62
2018-05-19T07:01:31.967Z,17.02
2018-05-19T07:04:01.293Z,17.60
2018-05-19T07:06:30.831Z,17.62
2018-05-19T07:09:00.940Z,18.10
2018-05-19T07:11:30.301Z,18.40
2018-05-19T07:13:59.613Z,17.60
2018-05-19T07:16:28.938Z,18.50
2018-05-19T07:18:58.235Z,18.42
2018-05-19T07:21:29.286Z,18.25
2018-05-19T07:23:58.610Z,20.30
2018-05-19T07:26:27.936Z,18.23
2018-05-19T07:28:57.239Z,17.25
2018-05-19T07:31:26.578Z,16.80
2018-05-19T07:33:55.874Z,16.77
2018-05-19T07:36:25.196Z,16.50
2018-05-19T07:38:55.479Z,18.70
2018-05-19T07:41:24.811Z,16.65
2018-05-19T07:43:54.180Z,17.98
2018-05-19T07:46:24.239Z,17.95
2018-05-19T07:48:53.590Z,18.27
2018-05-19T07:51:22.960Z,19.30
2018-05-19T07:53:52.256Z,18.02
2018-05-19T07:56:21.583Z,19.02
2018-05-19T07:58:50.886Z,16.92
2018-05-19T08:01:20.174Z,16.42
2018-05-19T08:03:49.498Z,17.77
2018-05-19T08:06:18.797Z,18.25
2018-05-19T08:08:48.102Z,17.00
2018-05-19T08:11:17.422Z,17.40
2018-05-19T08:13:47.429Z,17.02
2018-05-19T08:16:16.723Z,17.92
2018-05-19T08:18:46.850Z,18.08
2018-05-19T08:21:16.143Z,18.15
2018-05-19T08:23:45.450Z,17.33
2018-05-19T08:26:14.765Z,18.40
2018-05-19T08:28:44.088Z,17.05
2018-05-19T08:31:13.406Z,18.27
2018-05-19T08:33:42.728Z,19.40
2018-05-19T08:36:12.027Z,18.00
2018-05-19T08:38:41.710Z,17.55
2018-05-19T08:41:11.858Z,17.35
2018-05-19T08:43:41.129Z,18.08
2018-05-19T08:46:10.460Z,17.40
2018-05-19T08:48:39.767Z,19.62
2018-05-19T08:51:09.068Z,15.75
2018-05-19T08:53:38.377Z,17.15
2018-05-19T08:56:07.674Z,17.80
2018-05-19T08:58:36.967Z,17.33
2018-05-19T09:01:06.275Z,15.82
2018-05-19T09:03:35.565Z,16.70
2018-05-19T09:06:04.893Z,15.95
2018-05-19T09:08:34.248Z,18.30
2018-05-19T09:11:03.524Z,16.20
2018-05-19T09:13:32.861Z,14.82
2018-05-19T09:16:08.782Z,14.73
2018-05-19T09:18:38.883Z,14.65
2018-05-19T09:21:08.185Z,14.30
2018-05-19T09:23:38.406Z,14.50
2018-05-19T09:26:08.506Z,14.50
2018-05-19T09:28:37.814Z,11.90
2018-05-19T09:31:07.132Z,13.48
2018-05-19T09:33:36.430Z,12.95
2018-05-19T09:36:06.401Z,13.90
2018-05-19T09:38:35.701Z,11.20
2018-05-19T09:41:05.075Z,10.98
2018-05-19T09:43:35.143Z,13.75
2018-05-19T09:46:04.483Z,12.93
2018-05-19T09:48:33.806Z,12.37
2018-05-19T09:51:06.529Z,11.05
2018-05-19T09:53:41.729Z,12.35
2018-05-19T09:56:11.298Z,12.10
2018-05-19T09:58:41.487Z,10.65
2018-05-19T10:01:11.641Z,12.52
2018-05-19T10:03:41.023Z,11.73
2018-05-19T10:06:14.639Z,11.23
2018-05-19T10:08:44.034Z,11.73
2018-05-19T10:11:13.358Z,12.57
2018-05-19T10:13:42.697Z,11.98
2018-05-19T10:16:12.007Z,12.70
2018-05-19T10:18:41.307Z,13.88
2018-05-19T10:21:10.622Z,13.70
2018-05-19T10:23:39.946Z,12.63
2018-05-19T10:26:09.227Z,12.57
2018-05-19T10:28:38.567Z,11.95
2018-05-19T10:31:07.863Z,11.93
2018-05-19T10:33:37.167Z,10.02
2018-05-19T10:36:06.486Z,11.73
2018-05-19T10:38:36.563Z,12.25
2018-05-19T10:41:05.900Z,11.12
2018-05-19T10:43:35.983Z,11.10
2018-05-19T10:46:05.261Z,12.60
2018-05-19T10:48:34.568Z,11.10
2018-05-19T10:51:03.947Z,13.40
2018-05-19T10:53:33.267Z,12.50
2018-05-19T10:56:02.587Z,13.95
2018-05-19T10:58:31.878Z,13.93
2018-05-19T11:01:01.235Z,13.77
2018-05-19T11:03:30.589Z,12.60
2018-05-19T11:05:59.879Z,13.73
2018-05-19T11:08:31.074Z,12.70
2018-05-19T11:11:00.456Z,13.05
2018-05-19T11:13:29.791Z,12.40
2018-05-19T11:15:59.200Z,11.75
2018-05-19T11:18:28.675Z,12.85
2018-05-19T11:20:58.030Z,12.70
2018-05-19T11:23:27.553Z,12.80
2018-05-19T11:25:57.248Z,11.90
2018-05-19T11:28:26.625Z,12.10
2018-05-19T11:30:55.906Z,11.27
2018-05-19T11:33:25.243Z,12.23
2018-05-19T11:35:54.560Z,14.30
2018-05-19T11:38:23.871Z,12.18
2018-05-19T11:40:53.606Z,12.85
2018-05-19T11:43:23.675Z,12.50
2018-05-19T11:45:53.011Z,13.73
2018-05-19T11:48:22.350Z,13.55
2018-05-19T11:50:51.695Z,13.13
2018-05-19T11:53:21.095Z,11.45
2018-05-19T11:55:50.411Z,13.27
2018-05-19T11:58:21.269Z,12.23
2018-05-19T12:00:51.335Z,10.68
2018-05-19T12:03:20.751Z,11.12
2018-05-19T12:05:50.170Z,11.50
2018-05-19T12:08:19.383Z,10.73
2018-05-19T12:10:48.670Z,10.05
2018-05-19T12:13:17.984Z,11.35
2018-05-19T12:15:47.295Z,11.07
2018-05-19T12:18:16.605Z,10.35
2018-05-19T12:20:46.707Z,9.80
2018-05-19T12:23:19.073Z,9.50
2018-05-19T12:25:48.749Z,10.75
2018-05-19T12:28:18.951Z,11.57
2018-05-19T12:30:48.283Z,10.50
2018-05-19T12:33:17.657Z,11.88
2018-05-19T12:35:47.407Z,10.70
2018-05-19T12:38:16.844Z,10.45
2018-05-19T12:40:46.171Z,11.60
2018-05-19T12:43:15.470Z,10.73
2018-05-19T12:45:44.864Z,9.98
2018-05-19T12:48:14.939Z,9.15
2018-05-19T12:50:44.285Z,10.77
2018-05-19T12:53:13.596Z,12.00
2018-05-19T12:55:42.892Z,11.77
2018-05-19T12:58:13.500Z,10.38
2018-05-19T13:00:43.772Z,11.00
2018-05-19T13:03:13.311Z,10.10
2018-05-19T13:05:44.855Z,11.82
2018-05-19T13:08:14.153Z,11.00
2018-05-19T13:10:43.443Z,9.95
2018-05-19T13:13:14.744Z,10.13
2018-05-19T13:15:45.118Z,10.27
2018-05-19T13:18:14.449Z,11.38
2018-05-19T13:20:46.008Z,11.73
2018-05-19T13:23:15.314Z,10.65
2018-05-19T13:25:44.687Z,12.85
2018-05-19T13:28:14.687Z,12.15
2018-05-19T13:30:59.017Z,10.98
2018-05-19T13:33:28.389Z,11.43
2018-05-19T13:35:58.772Z,12.90
2018-05-19T13:38:29.015Z,13.52
2018-05-19T13:40:58.596Z,12.13
2018-05-19T13:43:28.047Z,12.50
2018-05-19T13:45:59.915Z,12.40
2018-05-19T13:48:30.358Z,11.82
2018-05-19T13:51:00.192Z,12.05
2018-05-19T13:53:29.981Z,13.18
2018-05-19T13:55:59.949Z,12.93
2018-05-19T13:58:29.323Z,12.02
2018-05-19T14:00:59.413Z,12.15
2018-05-19T14:03:30.729Z,10.93
2018-05-19T14:06:00.059Z,11.75
2018-05-19T14:08:30.159Z,11.10
2018-05-19T14:10:59.694Z,11.95
2018-05-19T14:13:29.589Z,11.65
2018-05-19T14:15:59.910Z,11.23
2018-05-19T14:18:30.441Z,10.70
2018-05-19T14:21:01.678Z,10.65
2018-05-19T14:23:31.168Z,11.40
2018-05-19T14:26:00.665Z,10.82
2018-05-19T14:28:30.286Z,9.70
2018-05-19T14:30:59.681Z,10.27
2018-05-19T14:33:28.993Z,10.95
2018-05-19T14:35:58.300Z,12.55
2018-05-19T14:38:27.596Z,10.68
2018-05-19T14:40:56.903Z,10.50
2018-05-19T14:43:27.009Z,11.10
2018-05-19T14:45:56.295Z,11.10
2018-05-19T14:48:25.613Z,11.75
2018-05-19T14:50:54.922Z,10.68
2018-05-19T14:53:25.055Z,10.60
2018-05-19T14:55:54.329Z,10.30
2018-05-19T14:58:23.708Z,9.65
2018-05-19T15:00:52.991Z,8.80
2018-05-19T15:03:22.298Z,9.80
2018-05-19T15:05:51.616Z,10.90
2018-05-19T15:08:23.738Z,10.10
2018-05-19T15:10:53.067Z,9.60
2018-05-19T15:13:23.468Z,9.75
2018-05-19T15:15:55.317Z,9.38
2018-05-19T15:18:25.796Z,9.05
2018-05-19T15:20:55.364Z,10.10
2018-05-19T15:23:25.481Z,8.90
2018-05-19T15:25:55.045Z,10.38
2018-05-19T15:28:25.123Z,8.75
2018-05-19T15:30:54.736Z,8.93
2018-05-19T15:33:24.320Z,8.85
2018-05-19T15:35:54.228Z,9.05
2018-05-19T15:38:23.768Z,8.93
2018-05-19T15:40:54.808Z,8.32
2018-05-19T15:43:24.498Z,8.27
2018-05-19T15:45:55.156Z,10.02
2018-05-19T15:48:24.954Z,7.70
2018-05-19T15:50:54.335Z,8.85
2018-05-19T15:53:23.746Z,7.95
2018-05-19T15:55:54.356Z,8.68
2018-05-19T15:58:24.488Z,9.15
2018-05-19T16:00:53.807Z,8.80
2018-05-19T16:03:23.159Z,9.50
2018-05-19T16:05:52.523Z,8.20
2018-05-19T16:08:21.893Z,8.10
2018-05-19T16:10:51.212Z,9.45
2018-05-19T16:13:20.531Z,9.43
2018-05-19T16:15:53.934Z,8.32
2018-05-19T16:18:23.290Z,8.32
2018-05-19T16:20:53.346Z,8.75
2018-05-19T16:23:22.654Z,8.57
2018-05-19T16:25:51.995Z,9.88
2018-05-19T16:28:21.286Z,8.27
2018-05-19T16:30:50.601Z,9.00
2018-05-19T16:33:20.652Z,9.50
2018-05-19T16:35:49.978Z,9.20
2018-05-19T16:38:20.100Z,8.57
2018-05-19T16:40:49.467Z,9.50
2018-05-19T16:43:18.771Z,9.45
2018-05-19T16:45:48.054Z,9.63
2018-05-19T16:48:18.208Z,9.68
2018-05-19T16:50:47.518Z,8.55
2018-05-19T16:53:16.840Z,10.65
2018-05-19T16:55:46.137Z,10.50
2018-05-19T16:58:15.441Z,9.07
2018-05-19T17:00:45.626Z,9.25
2018-05-19T17:03:14.914Z,10.00
2018-05-19T17:05:44.246Z,10.30
2018-05-19T17:08:13.581Z,10.80
2018-05-19T17:10:42.893Z,9.45
2018-05-19T17:13:12.951Z,8.98
2018-05-19T17:15:42.240Z,10.27
2018-05-19T17:18:11.552Z,8.25
2018-05-19T17:20:40.902Z,9.55
2018-05-19T17:23:10.216Z,8.93
2018-05-19T17:25:39.521Z,8.90
2018-05-19T17:28:09.681Z,9.45
2018-05-19T17:30:38.953Z,10.40
2018-05-19T17:33:08.237Z,9.95
2018-05-19T17:35:38.298Z,10.25
2018-05-19T17:38:07.631Z,9.38
2018-05-19T17:40:36.974Z,9.55
2018-05-19T17:43:06.314Z,8.70
2018-05-19T17:45:36.512Z,10.07
2018-05-19T17:48:06.586Z,10.35
2018-05-19T17:50:35.881Z,10.35
2018-05-19T17:53:05.184Z,10.60
2018-05-19T17:55:34.480Z,14.68
2018-05-19T17:58:03.816Z,12.50
2018-05-19T18:00:33.114Z,10.38
2018-05-19T18:03:02.844Z,9.85
2018-05-19T18:05:32.124Z,10.75
2018-05-19T18:08:02.372Z,11.10
2018-05-19T18:10:31.651Z,10.98
2018-05-19T18:13:01.767Z,11.70
2018-05-19T18:15:31.083Z,10.55
2018-05-19T18:18:00.391Z,11.88
2018-05-19T18:20:29.706Z,11.38
2018-05-19T18:22:59.131Z,10.60
2018-05-19T18:25:28.440Z,11.20
2018-05-19T18:27:57.756Z,11.75
2018-05-19T18:30:27.055Z,11.32
2018-05-19T18:32:56.753Z,12.68
2018-05-19T18:35:26.065Z,12.57
2018-05-19T18:37:55.382Z,12.55
2018-05-19T18:40:24.703Z,11.02
2018-05-19T18:42:54.008Z,10.85
2018-05-19T18:45:23.326Z,11.95
2018-05-19T18:47:52.614Z,12.35
2018-05-19T18:50:21.934Z,11.65
2018-05-19T18:53:00.909Z,11.65
2018-05-19T18:55:31.042Z,12.75
2018-05-19T18:58:01.099Z,11.55
2018-05-19T19:00:30.427Z,13.20
2018-05-19T19:02:59.713Z,12.27
2018-05-19T19:05:29.014Z,13.10
2018-05-19T19:07:58.317Z,12.45
2018-05-19T19:10:27.631Z,13.35
2018-05-19T19:12:56.962Z,12.70
2018-05-19T19:15:26.277Z,11.52
2018-05-19T19:17:55.600Z,12.10
2018-05-19T19:20:24.924Z,12.63
2018-05-19T19:22:54.229Z,12.57
2018-05-19T19:25:23.540Z,13.50
2018-05-19T19:27:52.863Z,11.80
2018-05-19T19:30:22.978Z,11.07
2018-05-19T19:32:52.249Z,7.82
2018-05-19T19:35:21.550Z,7.05
2018-05-19T19:37:50.866Z,7.60
2018-05-19T19:40:20.203Z,8.10
2018-05-19T19:42:49.860Z,7.05
2018-05-19T19:45:19.080Z,6.45
2018-05-19T19:47:48.381Z,6.87
2018-05-19T19:50:17.739Z,7.65
2018-05-19T19:52:47.013Z,7.37
2018-05-19T19:55:16.337Z,7.53
2018-05-19T19:57:45.685Z,6.78
2018-05-19T20:00:14.994Z,6.78
2018-05-19T20:02:44.307Z,7.45
2018-05-19T20:05:13.635Z,7.50
2018-05-19T20:07:42.929Z,7.93
2018-05-19T20:10:13.779Z,7.78
2018-05-19T20:12:43.102Z,8.18
2018-05-19T20:15:13.016Z,8.13
2018-05-19T20:17:42.544Z,7.82
2018-05-19T20:20:11.847Z,8.23
2018-05-19T20:22:41.132Z,8.80
2018-05-19T20:25:11.768Z,7.70
2018-05-19T20:27:41.090Z,8.88
2018-05-19T20:30:11.172Z,8.38
2018-05-19T20:32:41.287Z,9.63
2018-05-19T20:35:10.614Z,9.00
2018-05-19T20:37:39.927Z,10.52
2018-05-19T20:40:09.197Z,8.65
2018-05-19T20:42:38.610Z,7.80
2018-05-19T20:45:07.815Z,8.73
2018-05-19T20:47:37.097Z,8.73
2018-05-19T20:50:06.391Z,12.55
2018-05-19T20:52:35.697Z,9.85
2018-05-19T20:55:05.026Z,11.95
2018-05-19T20:57:34.309Z,11.77
2018-05-19T21:00:03.644Z,8.50
2018-05-19T21:02:33.738Z,8.52
2018-05-19T21:05:03.047Z,8.88
2018-05-19T21:07:32.356Z,7.93
2018-05-19T21:10:02.432Z,8.20
2018-05-19T21:12:32.274Z,8.63
2018-05-19T21:15:01.612Z,8.60
2018-05-19T21:17:30.917Z,9.18
2018-05-19T21:20:00.194Z,7.95
2018-05-19T21:22:30.313Z,8.90
2018-05-19T21:24:59.625Z,8.60
2018-05-19T21:27:28.943Z,7.95
2018-05-19T21:29:58.220Z,8.77
2018-05-19T21:32:28.313Z,8.48
2018-05-19T21:34:57.710Z,7.90
2018-05-19T21:37:27.010Z,8.00
2018-05-19T21:39:56.365Z,9.23
2018-05-19T21:42:25.667Z,8.38
2018-05-19T21:44:54.968Z,8.50
2018-05-19T21:47:24.297Z,8.15
2018-05-19T21:49:53.631Z,9.15
2018-05-19T21:52:22.855Z,8.68
2018-05-19T21:54:52.967Z,8.15
2018-05-19T21:57:23.033Z,8.63
2018-05-19T21:59:52.336Z,8.85
2018-05-19T22:02:21.672Z,10.55
2018-05-19T22:04:51.745Z,10.45
2018-05-19T22:07:21.043Z,8.63
2018-05-19T22:09:50.348Z,9.30
2018-05-19T22:12:19.683Z,8.82
2018-05-19T22:14:48.975Z,9.60
2018-05-19T22:17:18.309Z,9.30
2018-05-19T22:19:47.593Z,9.18
2018-05-19T22:22:16.932Z,9.68
2018-05-19T22:24:46.221Z,9.80
2018-05-19T22:27:15.499Z,9.63
2018-05-19T22:29:45.565Z,10.20
2018-05-19T22:32:14.886Z,10.50
2018-05-19T22:34:44.800Z,9.55
2018-05-19T22:37:14.073Z,9.57
2018-05-19T22:39:43.385Z,10.43
2018-05-19T22:42:12.698Z,13.38
2018-05-19T22:44:41.995Z,18.52
2018-05-19T22:47:11.309Z,10.05
2018-05-19T22:49:40.625Z,9.35
2018-05-19T22:52:09.926Z,10.23
2018-05-19T22:54:39.993Z,11.25
2018-05-19T22:57:09.279Z,9.60
2018-05-19T22:59:38.591Z,9.27
2018-05-19T23:02:07.927Z,10.07
2018-05-19T23:04:37.903Z,12.50
2018-05-19T23:07:07.236Z,11.27
2018-05-19T23:09:36.507Z,12.05
2018-05-19T23:12:05.856Z,11.48
2018-05-19T23:14:35.188Z,10.98
2018-05-19T23:17:06.057Z,12.25
2018-05-19T23:19:36.077Z,10.50
2018-05-19T23:22:05.415Z,10.18
2018-05-19T23:24:34.732Z,11.07
2018-05-19T23:27:04.812Z,14.32
2018-05-19T23:29:34.142Z,11.07
2018-05-19T23:32:03.435Z,11.02
2018-05-19T23:34:32.751Z,9.93
2018-05-19T23:37:02.832Z,11.20
2018-05-19T23:39:32.147Z,10.10
2018-05-19T23:42:01.444Z,9.07
2018-05-19T23:44:30.760Z,12.15
2018-05-19T23:47:00.059Z,10.30
2018-05-19T23:49:29.353Z,10.32
2018-05-19T23:51:58.687Z,9.90
2018-05-19T23:54:28.742Z,10.93
2018-05-19T23:56:58.086Z,11.38
2018-05-19T23:59:27.386Z,11.90
